Time;durP1;ratioP1;P1;durP2;ratioP2;P2;SDS_P1;SDS_P2;PMS_P1;PMS_P2;Temp;Humidity;BMP_temperature;BMP_pressure;BME280_temperature;BME280_humidity;BME280_pressure;Samples;Min_cycle;Max_cycle;Signal;HPM_P1;HPM_P2
2021/03/20 00:00:55;;;;;;;4.03;1.70;;;;;;;;;;5031895;28;20720;-76
2021/03/20 00:03:21;;;;;;;2.87;1.57;;;;;;;;;;5031197;28;20176;-76
2021/03/20 00:05:47;;;;;;;2.67;1.50;;;;;;;;;;5032333;28;20205;-76
2021/03/20 00:08:16;;;;;;;2.30;1.77;;;;;;;;;;5031597;28;20621;-76
2021/03/20 00:10:42;;;;;;;3.70;1.70;;;;;;;;;;5031812;28;20269;-76
2021/03/20 00:13:08;;;;;;;2.40;1.47;;;;;;;;;;5011980;28;20708;-76
2021/03/20 00:15:34;;;;;;;1.80;1.47;;;;;;;;;;5012045;28;20201;-76
2021/03/20 00:18:00;;;;;;;3.20;1.90;;;;;;;;;;5010781;28;20183;-76
2021/03/20 00:20:30;;;;;;;3.47;1.87;;;;;;;;;;5011326;28;20191;-76
2021/03/20 00:22:56;;;;;;;3.40;1.80;;;;;;;;;;5013900;28;20189;-76
2021/03/20 00:25:22;;;;;;;2.23;1.60;;;;;;;;;;5015135;28;20204;-76
2021/03/20 00:27:48;;;;;;;4.87;1.67;;;;;;;;;;5015951;28;20201;-76
2021/03/20 00:30:15;;;;;;;2.80;1.80;;;;;;;;;;5015657;28;20175;-76
2021/03/20 00:32:41;;;;;;;4.73;1.80;;;;;;;;;;5011709;28;20187;-76
2021/03/20 00:35:08;;;;;;;2.60;1.77;;;;;;;;;;5011509;28;20240;-76
2021/03/20 00:37:34;;;;;;;2.03;1.77;;;;;;;;;;5011539;28;20261;-76
2021/03/20 00:40:00;;;;;;;2.30;1.90;;;;;;;;;;5011561;28;20183;-76
2021/03/20 00:42:26;;;;;;;2.83;2.03;;;;;;;;;;5011417;28;20263;-76
2021/03/20 00:44:53;;;;;;;5.73;2.10;;;;;;;;;;5011155;28;20213;-76
2021/03/20 00:47:19;;;;;;;2.23;1.80;;;;;;;;;;5011722;28;20181;-76
2021/03/20 00:49:45;;;;;;;2.53;1.90;;;;;;;;;;5011896;28;20249;-76
2021/03/20 00:52:11;;;;;;;2.10;1.70;;;;;;;;;;5028457;28;20198;-76
2021/03/20 00:54:37;;;;;;;3.60;1.90;;;;;;;;;;5012029;28;20560;-76
2021/03/20 00:57:03;;;;;;;2.90;1.83;;;;;;;;;;5011670;28;20183;-76
2021/03/20 00:59:29;;;;;;;2.67;1.57;;;;;;;;;;5011063;28;20186;-76
2021/03/20 01:01:55;;;;;;;2.27;1.80;;;;;;;;;;5011290;28;20202;-76
2021/03/20 01:04:21;;;;;;;4.17;1.90;;;;;;;;;;5011638;28;20199;-76
2021/03/20 01:06:47;;;;;;;2.90;2.00;;;;;;;;;;5011348;28;20665;-76
2021/03/20 01:09:13;;;;;;;3.20;2.03;;;;;;;;;;5012697;28;20223;-76
2021/03/20 01:11:39;;;;;;;2.87;2.10;;;;;;;;;;5011359;28;20186;-76
2021/03/20 01:14:05;;;;;;;3.63;1.90;;;;;;;;;;5011000;28;20209;-76
2021/03/20 01:16:31;;;;;;;3.83;1.93;;;;;;;;;;5011402;28;20194;-76
2021/03/20 01:18:57;;;;;;;3.67;2.20;;;;;;;;;;5011528;28;20185;-74
2021/03/20 01:21:23;;;;;;;2.97;1.93;;;;;;;;;;5011437;28;20196;-75
2021/03/20 01:23:49;;;;;;;4.13;2.10;;;;;;;;;;5011168;28;20541;-74
2021/03/20 01:26:15;;;;;;;4.23;1.90;;;;;;;;;;5012256;28;20183;-74
2021/03/20 01:28:41;;;;;;;3.60;1.97;;;;;;;;;;5029473;28;20586;-75
2021/03/20 01:31:07;;;;;;;2.07;1.60;;;;;;;;;;5014868;28;20186;-74
2021/03/20 01:33:33;;;;;;;2.93;2.20;;;;;;;;;;5014851;28;20278;-75
2021/03/20 01:36:00;;;;;;;2.20;1.70;;;;;;;;;;5014902;28;20639;-74
2021/03/20 01:38:26;;;;;;;4.03;1.80;;;;;;;;;;5014652;28;20190;-75
2021/03/20 01:40:56;;;;;;;2.03;1.80;;;;;;;;;;5014434;28;20176;-74
2021/03/20 01:43:23;;;;;;;4.97;1.70;;;;;;;;;;5015555;28;20185;-75
2021/03/20 01:45:49;;;;;;;4.40;1.87;;;;;;;;;;5014483;28;20291;-76
2021/03/20 01:48:35;;;;;;;3.50;2.00;;;;;;;;;;5014390;28;20671;-76
2021/03/20 01:51:01;;;;;;;3.13;1.70;;;;;;;;;;5014574;28;20190;-76
2021/03/20 01:53:54;;;;;;;2.90;1.90;;;;;;;;;;5014301;28;20221;-76
2021/03/20 01:56:21;;;;;;;2.77;2.23;;;;;;;;;;5028288;28;20214;-76
2021/03/20 01:58:48;;;;;;;2.83;2.03;;;;;;;;;;5014171;28;20187;-76
2021/03/20 02:01:34;;;;;;;2.23;1.70;;;;;;;;;;5014874;28;20234;-76
2021/03/20 02:04:00;;;;;;;2.57;1.90;;;;;;;;;;5015313;28;20218;-76
2021/03/20 02:06:26;;;;;;;4.43;2.10;;;;;;;;;;5014749;28;20182;-76
2021/03/20 02:08:53;;;;;;;3.00;1.97;;;;;;;;;;5014382;28;20273;-76
2021/03/20 02:11:25;;;;;;;4.10;2.00;;;;;;;;;;5013897;28;20198;-76
2021/03/20 02:13:52;;;;;;;3.33;1.93;;;;;;;;;;5015463;28;20205;-76
2021/03/20 02:16:20;;;;;;;2.70;1.73;;;;;;;;;;5014678;28;20744;-76
2021/03/20 02:18:47;;;;;;;3.10;2.10;;;;;;;;;;5014353;28;20532;-76
2021/03/20 02:21:25;;;;;;;2.13;1.67;;;;;;;;;;5014442;28;20214;-76
2021/03/20 02:24:03;;;;;;;4.63;2.00;;;;;;;;;;5015485;28;20205;-76
2021/03/20 02:26:48;;;;;;;3.57;1.90;;;;;;;;;;5015411;28;20251;-76
2021/03/20 02:29:20;;;;;;;4.30;2.20;;;;;;;;;;5015312;28;20441;-76
2021/03/20 02:32:05;;;;;;;3.57;2.17;;;;;;;;;;5030978;28;20260;-76
2021/03/20 02:34:36;;;;;;;3.80;2.20;;;;;;;;;;5030623;28;20681;-76
2021/03/20 02:37:11;;;;;;;3.60;2.10;;;;;;;;;;5014250;28;20185;-76
2021/03/20 02:39:40;;;;;;;5.20;2.13;;;;;;;;;;5014192;28;20218;-76
2021/03/20 02:42:12;;;;;;;5.20;2.00;;;;;;;;;;5015131;28;20691;-76
2021/03/20 02:44:41;;;;;;;3.60;2.40;;;;;;;;;;5013208;28;20657;-76
2021/03/20 02:47:07;;;;;;;4.23;2.20;;;;;;;;;;5012961;28;20182;-75
2021/03/20 02:49:35;;;;;;;2.87;1.97;;;;;;;;;;5012996;28;20188;-75
2021/03/20 02:52:06;;;;;;;2.20;1.90;;;;;;;;;;5020923;28;20246;-75
2021/03/20 02:54:52;;;;;;;2.53;1.63;;;;;;;;;;5033125;28;20205;-75
2021/03/20 02:57:21;;;;;;;4.03;2.03;;;;;;;;;;5048996;28;20191;-76
2021/03/20 02:59:54;;;;;;;3.60;1.90;;;;;;;;;;5032362;28;20182;-76
2021/03/20 03:02:20;;;;;;;3.27;2.00;;;;;;;;;;5032805;28;20231;-76
2021/03/20 03:05:05;;;;;;;3.73;1.87;;;;;;;;;;5032467;28;20255;-76
2021/03/20 03:07:34;;;;;;;4.53;2.00;;;;;;;;;;5033237;28;20181;-76
2021/03/20 03:10:06;;;;;;;3.37;2.10;;;;;;;;;;5032758;28;20189;-76
2021/03/20 03:12:34;;;;;;;4.00;1.70;;;;;;;;;;5032423;28;20184;-76
2021/03/20 03:15:02;;;;;;;4.10;1.87;;;;;;;;;;5032877;28;20215;-76
2021/03/20 03:17:28;;;;;;;4.50;2.10;;;;;;;;;;5033245;28;20639;-76
2021/03/20 03:19:55;;;;;;;4.10;2.17;;;;;;;;;;5032953;28;20184;-75
2021/03/20 03:22:24;;;;;;;5.23;2.00;;;;;;;;;;5033059;28;20246;-76
2021/03/20 03:24:51;;;;;;;2.90;1.90;;;;;;;;;;5033720;28;20200;-76
2021/03/20 03:27:17;;;;;;;5.77;2.13;;;;;;;;;;5033275;28;20181;-76
2021/03/20 03:29:42;;;;;;;3.53;2.00;;;;;;;;;;5032980;28;20268;-76
2021/03/20 03:32:10;;;;;;;5.60;1.93;;;;;;;;;;5033483;28;20180;-76
2021/03/20 03:34:50;;;;;;;2.37;1.73;;;;;;;;;;5033573;28;20693;-76
2021/03/20 03:37:18;;;;;;;2.60;1.93;;;;;;;;;;5032999;28;20180;-76
2021/03/20 03:39:54;;;;;;;3.77;2.20;;;;;;;;;;5032812;28;20608;-76
2021/03/20 03:42:20;;;;;;;4.57;1.83;;;;;;;;;;5032694;28;20206;-76
2021/03/20 03:44:47;;;;;;;2.87;1.90;;;;;;;;;;5032334;28;20216;-76
2021/03/20 03:47:20;;;;;;;3.30;2.00;;;;;;;;;;5032907;28;20176;-76
2021/03/20 03:49:46;;;;;;;2.13;1.60;;;;;;;;;;5032972;28;20185;-76
2021/03/20 03:52:13;;;;;;;2.70;1.73;;;;;;;;;;5032503;28;20214;-76
2021/03/20 03:54:39;;;;;;;5.13;2.10;;;;;;;;;;5032589;28;20198;-76
2021/03/20 03:57:08;;;;;;;5.97;2.03;;;;;;;;;;5032686;28;20656;-76
2021/03/20 03:59:52;;;;;;;4.53;2.07;;;;;;;;;;5033513;28;20189;-76
2021/03/20 04:02:26;;;;;;;4.40;2.13;;;;;;;;;;5033409;28;20240;-76
2021/03/20 04:05:01;;;;;;;4.60;2.10;;;;;;;;;;5032093;28;20237;-76
2021/03/20 04:07:45;;;;;;;3.57;2.00;;;;;;;;;;5033101;28;20177;-76
2021/03/20 04:10:18;;;;;;;3.40;1.97;;;;;;;;;;5033563;28;20206;-76
2021/03/20 04:12:53;;;;;;;3.60;2.27;;;;;;;;;;5032421;28;20235;-76
2021/03/20 04:15:22;;;;;;;2.80;1.80;;;;;;;;;;5032209;28;20201;-76
2021/03/20 04:18:04;;;;;;;2.90;1.97;;;;;;;;;;5033299;28;20611;-76
2021/03/20 04:20:56;;;;;;;5.13;2.40;;;;;;;;;;5032898;28;20208;-76
2021/03/20 04:23:25;;;;;;;4.80;2.20;;;;;;;;;;5028788;28;20251;-76
2021/03/20 04:25:51;;;;;;;3.43;1.90;;;;;;;;;;5031570;28;20195;-76
2021/03/20 04:28:17;;;;;;;3.07;1.90;;;;;;;;;;5031934;28;20214;-76
2021/03/20 04:30:44;;;;;;;4.60;2.33;;;;;;;;;;5031605;28;20640;-76
2021/03/20 04:33:10;;;;;;;7.97;2.37;;;;;;;;;;5031668;28;20173;-76
2021/03/20 04:35:41;;;;;;;2.73;1.80;;;;;;;;;;5031337;28;20228;-76
2021/03/20 04:38:06;;;;;;;2.80;2.00;;;;;;;;;;5014866;28;20184;-76
2021/03/20 04:40:39;;;;;;;4.47;2.07;;;;;;;;;;5014816;28;20267;-76
2021/03/20 04:43:05;;;;;;;4.53;2.00;;;;;;;;;;5030816;28;20207;-76
2021/03/20 04:45:35;;;;;;;3.87;2.33;;;;;;;;;;5014521;28;20310;-76
2021/03/20 04:48:05;;;;;;;4.87;2.17;;;;;;;;;;5014820;28;20221;-76
2021/03/20 04:50:31;;;;;;;5.77;2.60;;;;;;;;;;5031156;28;20648;-76
2021/03/20 04:52:57;;;;;;;5.40;2.27;;;;;;;;;;5014566;28;20185;-76
2021/03/20 04:55:23;;;;;;;5.70;2.20;;;;;;;;;;5031393;28;20666;-76
2021/03/20 04:57:54;;;;;;;5.80;2.20;;;;;;;;;;5031210;28;20189;-76
2021/03/20 05:00:31;;;;;;;3.90;2.20;;;;;;;;;;5030839;28;20187;-76
2021/03/20 05:03:05;;;;;;;4.63;2.20;;;;;;;;;;5015785;28;20615;-76
2021/03/20 05:05:41;;;;;;;4.10;2.27;;;;;;;;;;5035042;28;20194;-76
2021/03/20 05:08:09;;;;;;;5.60;2.10;;;;;;;;;;5035128;28;20182;-76
2021/03/20 05:10:38;;;;;;;3.37;2.07;;;;;;;;;;5018140;28;20175;-76
2021/03/20 05:13:05;;;;;;;3.83;2.20;;;;;;;;;;5036337;28;20184;-75
2021/03/20 05:15:31;;;;;;;8.33;2.50;;;;;;;;;;5034682;28;20209;-75
2021/03/20 05:17:57;;;;;;;3.47;2.20;;;;;;;;;;5034507;28;20183;-76
2021/03/20 05:20:24;;;;;;;3.27;1.80;;;;;;;;;;5034332;28;20185;-76
2021/03/20 05:22:50;;;;;;;4.57;1.97;;;;;;;;;;5018119;28;20220;-76
2021/03/20 05:25:17;;;;;;;4.53;2.27;;;;;;;;;;5017922;28;20205;-76
2021/03/20 05:27:43;;;;;;;3.93;2.20;;;;;;;;;;5034480;28;20176;-76
2021/03/20 05:30:09;;;;;;;4.73;2.30;;;;;;;;;;5017697;28;20188;-76
2021/03/20 05:32:35;;;;;;;4.90;2.17;;;;;;;;;;5034208;28;20557;-76
2021/03/20 05:35:02;;;;;;;5.00;2.20;;;;;;;;;;5034328;28;20208;-76
2021/03/20 05:37:32;;;;;;;4.57;2.53;;;;;;;;;;5034552;28;20234;-76
2021/03/20 05:39:58;;;;;;;4.20;2.60;;;;;;;;;;5036317;28;20180;-76
2021/03/20 05:42:42;;;;;;;5.13;2.60;;;;;;;;;;5039371;28;20695;-76
2021/03/20 05:45:11;;;;;;;3.50;2.30;;;;;;;;;;5022144;28;20290;-74
2021/03/20 05:47:50;;;;;;;4.63;2.37;;;;;;;;;;5040971;28;20201;-74
2021/03/20 05:50:34;;;;;;;5.20;2.60;;;;;;;;;;5038349;28;20170;-74
2021/03/20 05:53:03;;;;;;;4.30;2.20;;;;;;;;;;5036993;28;20214;-74
2021/03/20 05:55:39;;;;;;;4.30;2.60;;;;;;;;;;5035596;28;20258;-74
2021/03/20 05:58:25;;;;;;;4.13;2.40;;;;;;;;;;5018863;28;20188;-74
2021/03/20 06:01:00;;;;;;;3.30;2.40;;;;;;;;;;5034941;28;20264;-74
2021/03/20 06:03:44;;;;;;;5.63;2.40;;;;;;;;;;5035760;28;20191;-74
2021/03/20 06:06:27;;;;;;;4.63;2.43;;;;;;;;;;5034712;28;20176;-74
2021/03/20 06:09:12;;;;;;;5.13;3.00;;;;;;;;;;5034912;28;20677;-74
2021/03/20 06:11:38;;;;;;;7.27;2.50;;;;;;;;;;5035225;28;20214;-74
2021/03/20 06:14:11;;;;;;;4.17;2.50;;;;;;;;;;5032645;28;20208;-74
2021/03/20 06:16:38;;;;;;;3.33;2.13;;;;;;;;;;5033902;28;20185;-74
2021/03/20 06:19:04;;;;;;;4.13;2.63;;;;;;;;;;5017275;28;20186;-74
2021/03/20 06:21:48;;;;;;;4.73;2.00;;;;;;;;;;5034210;28;20718;-74
2021/03/20 06:24:24;;;;;;;3.87;2.57;;;;;;;;;;5033808;28;20202;-75
2021/03/20 06:26:50;;;;;;;5.50;2.60;;;;;;;;;;5033913;28;20267;-74
2021/03/20 06:29:17;;;;;;;5.97;2.40;;;;;;;;;;5017010;28;20180;-74
2021/03/20 06:31:45;;;;;;;3.70;2.30;;;;;;;;;;5017158;28;20182;-74
2021/03/20 06:34:23;;;;;;;4.43;2.60;;;;;;;;;;5033342;28;20201;-75
2021/03/20 06:36:51;;;;;;;4.87;2.13;;;;;;;;;;5034815;28;20185;-74
2021/03/20 06:39:19;;;;;;;4.90;2.50;;;;;;;;;;5016857;28;20213;-74
2021/03/20 06:41:58;;;;;;;3.27;2.40;;;;;;;;;;5033137;28;20705;-74
2021/03/20 06:44:27;;;;;;;4.23;2.60;;;;;;;;;;5016481;28;20266;-74
2021/03/20 06:46:53;;;;;;;4.13;2.43;;;;;;;;;;5016343;28;20182;-74
2021/03/20 06:49:21;;;;;;;4.67;2.33;;;;;;;;;;5032820;28;20231;-74
2021/03/20 06:51:47;;;;;;;3.63;2.50;;;;;;;;;;5016409;28;20213;-74
2021/03/20 06:54:13;;;;;;;5.67;2.27;;;;;;;;;;5016436;28;20256;-74
2021/03/20 06:56:39;;;;;;;4.23;2.50;;;;;;;;;;5032748;28;20189;-75
2021/03/20 06:59:12;;;;;;;2.77;1.90;;;;;;;;;;5016236;28;20181;-74
2021/03/20 07:01:38;;;;;;;5.27;2.50;;;;;;;;;;5016116;28;20210;-74
2021/03/20 07:04:13;;;;;;;3.23;2.17;;;;;;;;;;5032022;28;20202;-74
2021/03/20 07:06:42;;;;;;;3.77;2.23;;;;;;;;;;5033846;28;20178;-74
2021/03/20 07:09:08;;;;;;;4.50;2.10;;;;;;;;;;5032588;28;20187;-74
2021/03/20 07:11:38;;;;;;;6.70;2.40;;;;;;;;;;5032781;28;20209;-75
2021/03/20 07:14:11;;;;;;;3.80;1.90;;;;;;;;;;5032722;28;20234;-74
2021/03/20 07:16:54;;;;;;;3.90;2.23;;;;;;;;;;5033137;28;20182;-74
2021/03/20 07:19:20;;;;;;;4.40;2.33;;;;;;;;;;5032908;28;20209;-74
2021/03/20 07:21:46;;;;;;;4.70;2.37;;;;;;;;;;5032629;28;20657;-74
2021/03/20 07:24:18;;;;;;;6.87;2.50;;;;;;;;;;5033895;28;20280;-79
2021/03/20 07:26:49;;;;;;;7.30;2.43;;;;;;;;;;5034070;28;20189;-76
2021/03/20 07:29:15;;;;;;;5.50;2.37;;;;;;;;;;5033024;28;20261;-75
2021/03/20 07:32:11;;;;;;;3.53;2.43;;;;;;;;;;5032825;28;20299;-74
2021/03/20 07:34:37;;;;;;;5.47;2.23;;;;;;;;;;5012209;28;20301;-74
2021/03/20 07:37:13;;;;;;;6.47;3.20;;;;;;;;;;5033169;28;20602;-74
2021/03/20 07:39:53;;;;;;;4.60;2.57;;;;;;;;;;5036941;28;20232;-76
2021/03/20 07:42:38;;;;;;;5.53;2.83;;;;;;;;;;5035751;28;20206;-79
2021/03/20 07:45:04;;;;;;;4.20;2.63;;;;;;;;;;5033385;28;20222;-79
2021/03/20 07:47:32;;;;;;;5.50;2.40;;;;;;;;;;5032626;28;20183;-73
2021/03/20 07:50:07;;;;;;;6.07;2.23;;;;;;;;;;5032116;28;20190;-74
2021/03/20 07:52:33;;;;;;;6.53;2.43;;;;;;;;;;5033060;28;20177;-74
2021/03/20 07:55:03;;;;;;;6.20;2.53;;;;;;;;;;5032512;28;20214;-75
2021/03/20 07:57:29;;;;;;;4.80;2.57;;;;;;;;;;5032493;28;20281;-74
2021/03/20 07:59:55;;;;;;;7.33;2.60;;;;;;;;;;5032885;28;20224;-78
2021/03/20 08:02:31;;;;;;;7.47;2.80;;;;;;;;;;5032432;28;20204;-74
2021/03/20 08:04:59;;;;;;;3.83;2.60;;;;;;;;;;5032266;28;20206;-75
2021/03/20 08:07:28;;;;;;;5.37;2.40;;;;;;;;;;5027786;28;20190;-74
2021/03/20 08:10:14;;;;;;;3.97;1.83;;;;;;;;;;5028147;28;20278;-77
2021/03/20 08:12:50;;;;;;;5.47;2.30;;;;;;;;;;5032579;28;20600;-76
2021/03/20 08:15:16;;;;;;;6.43;2.13;;;;;;;;;;5028390;28;20297;-76
2021/03/20 08:17:42;;;;;;;4.97;2.27;;;;;;;;;;5016142;28;20269;-77
2021/03/20 08:20:13;;;;;;;4.33;2.20;;;;;;;;;;5031554;28;20189;-77
2021/03/20 08:22:51;;;;;;;3.50;2.17;;;;;;;;;;5015481;28;20223;-77
2021/03/20 08:25:23;;;;;;;4.43;1.93;;;;;;;;;;5012077;28;20604;-77
2021/03/20 08:28:22;;;;;;;2.97;1.90;;;;;;;;;;5035709;28;20182;-77
2021/03/20 08:30:48;;;;;;;4.40;2.00;;;;;;;;;;4988834;28;20226;-76
2021/03/20 08:33:17;;;;;;;4.27;1.90;;;;;;;;;;5032855;28;20221;-76
2021/03/20 08:35:43;;;;;;;3.83;2.43;;;;;;;;;;5031925;28;20207;-77
2021/03/20 08:38:19;;;;;;;6.97;2.20;;;;;;;;;;5031315;28;20190;-77
2021/03/20 08:40:54;;;;;;;4.03;1.83;;;;;;;;;;5013004;28;20188;-77
2021/03/20 08:43:33;;;;;;;3.90;1.93;;;;;;;;;;5034358;28;20603;-78
2021/03/20 08:46:18;;;;;;;4.47;2.37;;;;;;;;;;5035806;28;20683;-78
2021/03/20 08:49:04;;;;;;;4.20;2.37;;;;;;;;;;5031136;28;20182;-75
2021/03/20 08:51:36;;;;;;;5.50;2.37;;;;;;;;;;5026663;28;20179;-74
2021/03/20 08:54:08;;;;;;;3.93;2.23;;;;;;;;;;5012523;28;20206;-75
2021/03/20 08:56:45;;;;;;;5.87;2.20;;;;;;;;;;5012741;28;20176;-75
2021/03/20 08:59:25;;;;;;;4.40;1.90;;;;;;;;;;4995265;28;20225;-75
2021/03/20 09:02:04;;;;;;;7.47;2.30;;;;;;;;;;5011886;28;20207;-74
2021/03/20 09:04:34;;;;;;;4.90;2.47;;;;;;;;;;5011039;28;20224;-74
2021/03/20 09:07:01;;;;;;;3.70;2.00;;;;;;;;;;5011567;28;20222;-75
2021/03/20 09:09:30;;;;;;;5.80;1.77;;;;;;;;;;5011462;28;20176;-76
2021/03/20 09:12:32;;;;;;;5.87;2.03;;;;;;;;;;5012983;28;20675;-75
2021/03/20 09:14:58;;;;;;;4.67;1.97;;;;;;;;;;4932782;29;20219;-79
2021/03/20 09:17:34;;;;;;;2.70;1.70;;;;;;;;;;5008626;28;20246;-75
2021/03/20 09:20:06;;;;;;;5.60;2.47;;;;;;;;;;5011094;28;20210;-75
2021/03/20 09:22:32;;;;;;;4.37;2.00;;;;;;;;;;5011328;28;20231;-75
2021/03/20 09:25:06;;;;;;;5.43;1.83;;;;;;;;;;5011429;28;20611;-75
2021/03/20 09:27:51;;;;;;;4.00;1.87;;;;;;;;;;5011492;28;20653;-75
2021/03/20 09:30:20;;;;;;;5.30;1.90;;;;;;;;;;5012181;28;20554;-75
2021/03/20 09:32:47;;;;;;;4.13;2.10;;;;;;;;;;5011296;28;20180;-75
2021/03/20 09:35:46;;;;;;;3.77;2.00;;;;;;;;;;5010747;28;20226;-75
2021/03/20 09:38:12;;;;;;;3.53;2.00;;;;;;;;;;4969205;28;20191;-74
2021/03/20 09:40:48;;;;;;;3.13;2.00;;;;;;;;;;5011161;28;20509;-75
2021/03/20 09:43:22;;;;;;;5.93;2.20;;;;;;;;;;4995458;28;20210;-77
2021/03/20 09:46:08;;;;;;;3.80;1.90;;;;;;;;;;4994987;28;20215;-75
2021/03/20 09:48:40;;;;;;;4.47;2.03;;;;;;;;;;5012221;28;20194;-75
2021/03/20 09:51:26;;;;;;;2.70;1.93;;;;;;;;;;5013997;28;20226;-75
2021/03/20 09:53:53;;;;;;;2.37;1.80;;;;;;;;;;5023651;28;20248;-74
2021/03/20 09:56:26;;;;;;;3.87;1.73;;;;;;;;;;5031162;28;20245;-75
2021/03/20 09:58:52;;;;;;;5.10;1.70;;;;;;;;;;5033277;28;20229;-76
2021/03/20 10:01:18;;;;;;;3.57;1.93;;;;;;;;;;5032554;28;20786;-76
2021/03/20 10:03:45;;;;;;;2.23;1.83;;;;;;;;;;5033055;28;20664;-76
2021/03/20 10:06:11;;;;;;;6.93;1.93;;;;;;;;;;5026607;28;20187;-76
2021/03/20 10:09:07;;;;;;;3.87;1.70;;;;;;;;;;5031768;28;20183;-75
2021/03/20 10:11:33;;;;;;;4.03;2.00;;;;;;;;;;4946326;28;20650;-77
2021/03/20 10:13:59;;;;;;;3.33;1.77;;;;;;;;;;5034809;28;20261;-76
2021/03/20 10:16:26;;;;;;;4.30;1.90;;;;;;;;;;5035299;28;20206;-76
2021/03/20 10:18:52;;;;;;;3.67;1.87;;;;;;;;;;5016886;28;20175;-76
2021/03/20 10:21:19;;;;;;;6.03;1.83;;;;;;;;;;5034309;28;20692;-74
2021/03/20 10:23:54;;;;;;;4.83;1.80;;;;;;;;;;5033630;28;20639;-75
2021/03/20 10:26:27;;;;;;;2.30;1.70;;;;;;;;;;5034408;28;20554;-75
2021/03/20 10:28:57;;;;;;;4.73;1.60;;;;;;;;;;5034641;28;20237;-75
2021/03/20 10:31:23;;;;;;;3.43;1.70;;;;;;;;;;5028929;28;20183;-74
2021/03/20 10:33:49;;;;;;;4.03;1.50;;;;;;;;;;5034594;28;20211;-76
2021/03/20 10:36:15;;;;;;;3.03;1.83;;;;;;;;;;5033393;28;20710;-75
2021/03/20 10:38:41;;;;;;;5.53;2.00;;;;;;;;;;5033078;28;20222;-75
2021/03/20 10:41:08;;;;;;;2.23;1.77;;;;;;;;;;5032955;28;20186;-76
2021/03/20 10:43:49;;;;;;;4.27;1.90;;;;;;;;;;5009662;28;20187;-76
2021/03/20 10:46:28;;;;;;;2.20;1.50;;;;;;;;;;5033013;28;20220;-75
2021/03/20 10:48:55;;;;;;;3.13;1.80;;;;;;;;;;5032778;28;20655;-75
2021/03/20 10:51:21;;;;;;;2.43;1.90;;;;;;;;;;5014053;28;20184;-76
2021/03/20 10:53:49;;;;;;;5.60;2.93;;;;;;;;;;5015402;28;20187;-76
2021/03/20 10:56:39;;;;;;;3.00;2.10;;;;;;;;;;5031360;28;20182;-78
2021/03/20 10:59:12;;;;;;;2.43;1.90;;;;;;;;;;5025248;28;20199;-76
2021/03/20 11:01:38;;;;;;;2.33;1.57;;;;;;;;;;5015375;28;20205;-77
2021/03/20 11:04:05;;;;;;;4.50;2.10;;;;;;;;;;5030741;28;20202;-77
2021/03/20 11:06:31;;;;;;;5.03;1.87;;;;;;;;;;5029665;28;20175;-76
2021/03/20 11:09:08;;;;;;;3.93;1.90;;;;;;;;;;5029914;28;20256;-75
2021/03/20 11:11:35;;;;;;;3.00;1.90;;;;;;;;;;5017161;28;20198;-76
2021/03/20 11:14:06;;;;;;;2.30;2.00;;;;;;;;;;5002068;28;20588;-76
2021/03/20 11:16:32;;;;;;;3.20;1.70;;;;;;;;;;5026017;28;20183;-77
2021/03/20 11:19:09;;;;;;;4.13;2.00;;;;;;;;;;5016831;28;20186;-76
2021/03/20 11:21:36;;;;;;;3.17;2.00;;;;;;;;;;5031956;28;20783;-76
2021/03/20 11:24:06;;;;;;;3.37;1.90;;;;;;;;;;5012147;28;20211;-77
2021/03/20 11:26:43;;;;;;;3.30;2.00;;;;;;;;;;5025263;28;20180;-76
2021/03/20 11:29:14;;;;;;;3.60;1.97;;;;;;;;;;5015950;28;20170;-74
2021/03/20 11:31:45;;;;;;;2.57;1.77;;;;;;;;;;5032332;28;20192;-74
2021/03/20 11:34:16;;;;;;;2.60;1.90;;;;;;;;;;5029898;28;20210;-77
2021/03/20 11:36:42;;;;;;;3.80;2.30;;;;;;;;;;5033101;28;20598;-77
2021/03/20 11:39:09;;;;;;;4.53;2.23;;;;;;;;;;5032577;28;20187;-76
2021/03/20 11:41:38;;;;;;;2.57;1.90;;;;;;;;;;5032760;28;20215;-76
2021/03/20 11:44:22;;;;;;;3.20;1.90;;;;;;;;;;5032257;28;20211;-73
2021/03/20 11:47:06;;;;;;;3.80;2.03;;;;;;;;;;5028942;28;20186;-73
2021/03/20 11:49:45;;;;;;;3.77;2.33;;;;;;;;;;5032960;28;20183;-72
2021/03/20 11:52:18;;;;;;;3.43;2.00;;;;;;;;;;5030426;28;20186;-75
2021/03/20 11:54:44;;;;;;;4.20;2.07;;;;;;;;;;5013570;28;20201;-75
2021/03/20 11:57:30;;;;;;;5.07;2.07;;;;;;;;;;5028360;28;20187;-74
2021/03/20 11:59:56;;;;;;;3.53;2.37;;;;;;;;;;5031414;28;20823;-74
2021/03/20 12:02:25;;;;;;;3.53;2.20;;;;;;;;;;5031400;28;20202;-74
2021/03/20 12:05:08;;;;;;;4.03;2.33;;;;;;;;;;5016558;28;20207;-75
2021/03/20 12:07:34;;;;;;;2.97;2.00;;;;;;;;;;5009416;28;20189;-75
2021/03/20 12:10:11;;;;;;;4.43;2.27;;;;;;;;;;5031061;28;20202;-75
2021/03/20 12:12:48;;;;;;;4.67;2.30;;;;;;;;;;5032015;28;20179;-74
2021/03/20 12:15:20;;;;;;;4.17;2.20;;;;;;;;;;5030415;28;20281;-76
2021/03/20 12:17:47;;;;;;;3.40;2.30;;;;;;;;;;5031994;28;20199;-77
2021/03/20 12:20:17;;;;;;;3.50;2.20;;;;;;;;;;5015623;28;20190;-75
2021/03/20 12:22:46;;;;;;;5.10;2.33;;;;;;;;;;5031382;28;20203;-78
2021/03/20 12:25:12;;;;;;;3.70;2.10;;;;;;;;;;5041798;28;20211;-78
2021/03/20 12:27:38;;;;;;;3.53;2.50;;;;;;;;;;5032997;28;20189;-74
2021/03/20 12:30:04;;;;;;;2.83;2.13;;;;;;;;;;5032346;28;20612;-77
2021/03/20 12:32:33;;;;;;;3.53;2.17;;;;;;;;;;5030682;28;20179;-75
2021/03/20 12:35:17;;;;;;;2.87;2.10;;;;;;;;;;5029994;28;20296;-74
2021/03/20 12:37:44;;;;;;;3.17;2.33;;;;;;;;;;5021381;28;20186;-76
2021/03/20 12:40:10;;;;;;;3.90;2.20;;;;;;;;;;5030735;28;20691;-76
2021/03/20 12:42:37;;;;;;;3.20;2.10;;;;;;;;;;5030908;28;20223;-77
2021/03/20 12:45:03;;;;;;;2.97;2.30;;;;;;;;;;5030467;28;20219;-76
2021/03/20 12:47:31;;;;;;;3.27;2.10;;;;;;;;;;4993536;28;20180;-76
2021/03/20 12:49:57;;;;;;;3.83;2.40;;;;;;;;;;5028309;28;20188;-74
2021/03/20 12:52:24;;;;;;;3.33;2.30;;;;;;;;;;5025019;28;20187;-76
2021/03/20 12:54:51;;;;;;;3.00;2.67;;;;;;;;;;5022716;28;20214;-75
2021/03/20 12:57:18;;;;;;;3.70;2.47;;;;;;;;;;4995788;28;20220;-75
2021/03/20 12:59:44;;;;;;;3.27;2.20;;;;;;;;;;5029754;28;20217;-75
2021/03/20 13:02:11;;;;;;;3.57;2.30;;;;;;;;;;5013844;28;20210;-74
2021/03/20 13:04:38;;;;;;;3.77;2.30;;;;;;;;;;5025326;28;20202;-76
2021/03/20 13:07:05;;;;;;;4.07;2.13;;;;;;;;;;5001311;28;20179;-76
2021/03/20 13:09:31;;;;;;;2.97;2.20;;;;;;;;;;5027834;28;20173;-76
2021/03/20 13:11:57;;;;;;;3.40;2.60;;;;;;;;;;5031305;28;20178;-76
2021/03/20 13:14:23;;;;;;;3.07;2.40;;;;;;;;;;5032484;28;20256;-75
2021/03/20 13:16:49;;;;;;;3.30;2.40;;;;;;;;;;5026634;28;20242;-76
2021/03/20 13:19:15;;;;;;;4.00;2.17;;;;;;;;;;5030481;28;20179;-76
2021/03/20 13:21:41;;;;;;;3.17;2.23;;;;;;;;;;5010880;28;20206;-76
2021/03/20 13:24:08;;;;;;;3.07;2.20;;;;;;;;;;5012737;28;20209;-74
2021/03/20 13:26:34;;;;;;;3.70;2.50;;;;;;;;;;5012974;28;20185;-75
2021/03/20 13:29:00;;;;;;;3.53;2.30;;;;;;;;;;5031299;28;20186;-75
2021/03/20 13:31:26;;;;;;;4.03;2.30;;;;;;;;;;5034821;28;20182;-74
2021/03/20 13:33:52;;;;;;;4.17;2.30;;;;;;;;;;5017122;28;20257;-76
2021/03/20 13:36:18;;;;;;;3.23;2.23;;;;;;;;;;5016747;28;20225;-74
2021/03/20 13:38:44;;;;;;;2.93;2.60;;;;;;;;;;5033918;28;20233;-75
2021/03/20 13:41:11;;;;;;;2.77;2.33;;;;;;;;;;5017538;28;20209;-75
2021/03/20 13:43:37;;;;;;;5.03;2.53;;;;;;;;;;5017641;28;20178;-75
2021/03/20 13:46:03;;;;;;;4.33;2.40;;;;;;;;;;5018446;28;20666;-74
2021/03/20 13:48:29;;;;;;;3.67;2.33;;;;;;;;;;5034512;28;20176;-75
2021/03/20 13:50:55;;;;;;;4.33;2.83;;;;;;;;;;5017994;28;20273;-75
2021/03/20 13:53:22;;;;;;;4.60;2.57;;;;;;;;;;5034004;28;20560;-77
2021/03/20 13:55:52;;;;;;;4.07;2.90;;;;;;;;;;5018047;28;20202;-76
2021/03/20 13:58:18;;;;;;;4.37;2.80;;;;;;;;;;5030863;28;20600;-76
2021/03/20 14:00:45;;;;;;;4.23;3.07;;;;;;;;;;5028428;28;20243;-76
2021/03/20 14:03:11;;;;;;;4.80;3.10;;;;;;;;;;4998108;28;20208;-76
2021/03/20 14:05:37;;;;;;;3.53;2.87;;;;;;;;;;5013894;28;20266;-76
2021/03/20 14:08:03;;;;;;;6.17;2.90;;;;;;;;;;5015502;28;20184;-76
2021/03/20 14:10:30;;;;;;;4.23;2.70;;;;;;;;;;5015518;28;20633;-76
2021/03/20 14:12:56;;;;;;;3.63;2.70;;;;;;;;;;4997919;28;20185;-76
2021/03/20 14:15:23;;;;;;;4.10;3.13;;;;;;;;;;5015291;28;20195;-76
2021/03/20 14:17:49;;;;;;;4.43;2.80;;;;;;;;;;5014000;28;20211;-76
2021/03/20 14:20:23;;;;;;;5.03;3.00;;;;;;;;;;5015441;28;20180;-75
2021/03/20 14:22:49;;;;;;;4.37;2.93;;;;;;;;;;4998705;28;20211;-76
2021/03/20 14:25:15;;;;;;;4.80;3.00;;;;;;;;;;5016480;28;20200;-76
2021/03/20 14:27:41;;;;;;;3.97;2.80;;;;;;;;;;5014992;28;20175;-76
2021/03/20 14:30:07;;;;;;;3.57;3.10;;;;;;;;;;5014610;28;20260;-76
2021/03/20 14:32:33;;;;;;;3.73;2.83;;;;;;;;;;5014170;28;20180;-76
2021/03/20 14:34:59;;;;;;;5.97;3.07;;;;;;;;;;5012837;28;20199;-76
2021/03/20 14:37:25;;;;;;;5.70;2.90;;;;;;;;;;5013365;28;20655;-76
2021/03/20 14:39:51;;;;;;;5.23;3.03;;;;;;;;;;5014640;28;20644;-76
2021/03/20 14:42:17;;;;;;;3.47;2.63;;;;;;;;;;5013117;28;20205;-76
2021/03/20 14:44:44;;;;;;;4.67;3.20;;;;;;;;;;5013084;28;20214;-76
2021/03/20 14:47:10;;;;;;;4.03;3.10;;;;;;;;;;4997084;28;20186;-76
2021/03/20 14:49:36;;;;;;;3.77;3.00;;;;;;;;;;4997025;28;20179;-76
2021/03/20 14:52:03;;;;;;;4.30;3.07;;;;;;;;;;5013263;28;20206;-76
2021/03/20 14:54:29;;;;;;;3.23;2.70;;;;;;;;;;5013281;28;20290;-76
2021/03/20 14:56:55;;;;;;;5.97;2.90;;;;;;;;;;4997176;28;20279;-76
2021/03/20 14:59:21;;;;;;;4.03;3.07;;;;;;;;;;5014536;28;20213;-76
2021/03/20 15:01:47;;;;;;;4.37;3.20;;;;;;;;;;4997048;28;20211;-76